createdAt,value
2022-11-08T00:00:24.557Z,101074.71
2022-11-08T00:00:36.735Z,101081.77
2022-11-08T00:01:37.665Z,101081.77
2022-11-08T00:02:37.564Z,101080.34
2022-11-08T00:03:37.837Z,101079.74
2022-11-08T00:04:39.329Z,101079.44
2022-11-08T00:05:39.594Z,101079.30
2022-11-08T00:06:40.028Z,101079.13
2022-11-08T00:07:39.665Z,101079.00
2022-11-08T00:08:40.982Z,101078.66
2022-11-08T00:09:40.372Z,101078.61
2022-11-08T00:10:41.990Z,101078.30
2022-11-08T00:11:42.268Z,101077.66
2022-11-08T00:12:42.580Z,101077.61
2022-11-08T00:13:42.994Z,101077.23
2022-11-08T00:14:42.302Z,101077.39
2022-11-08T00:15:43.668Z,101077.00
2022-11-08T00:16:43.296Z,101076.70
2022-11-08T00:17:44.849Z,101076.28
2022-11-08T00:18:45.297Z,101076.14
2022-11-08T00:19:45.759Z,101075.81
2022-11-08T00:20:45.309Z,101075.34
2022-11-08T00:21:45.956Z,101074.49
2022-11-08T00:21:54.701Z,101077.63
2022-11-08T00:22:54.621Z,101077.80
2022-11-08T00:23:55.982Z,101076.54
2022-11-08T00:24:56.404Z,101076.20
2022-11-08T00:25:56.807Z,101075.81
2022-11-08T00:26:56.215Z,101074.47
2022-11-08T00:27:57.620Z,101073.87
2022-11-08T00:28:57.958Z,101073.48
2022-11-08T00:29:58.698Z,101072.98
2022-11-08T00:30:59.025Z,101072.84
2022-11-08T00:31:58.426Z,101072.12
2022-11-08T00:32:59.765Z,101072.03
2022-11-08T00:33:59.988Z,101071.61
2022-11-08T00:35:00.536Z,101070.89
2022-11-08T00:36:00.975Z,101070.47
2022-11-08T00:37:01.875Z,101069.99
2022-11-08T00:38:02.195Z,101069.27
2022-11-08T00:39:03.174Z,101068.77
2022-11-08T00:40:03.927Z,101068.71
2022-11-08T00:41:04.458Z,101067.91
2022-11-08T00:42:05.042Z,101067.59
2022-11-08T00:42:14.699Z,101066.34
2022-11-08T00:43:16.244Z,101066.25
2022-11-08T00:44:15.869Z,101065.75
2022-11-08T00:45:17.193Z,101065.33
2022-11-08T00:46:18.299Z,101064.85
2022-11-08T00:47:16.589Z,101064.43
2022-11-08T00:48:19.824Z,101063.95
2022-11-08T00:49:17.791Z,101063.45
2022-11-08T00:50:17.979Z,101063.23
2022-11-08T00:51:19.511Z,101062.34
2022-11-08T00:52:19.706Z,101061.19
2022-11-08T00:53:19.019Z,101060.47
2022-11-08T00:54:21.474Z,101059.31
2022-11-08T00:55:21.175Z,101058.50
2022-11-08T00:56:21.957Z,101057.95
2022-11-08T00:57:27.539Z,101056.55
2022-11-08T00:58:27.110Z,101055.98
2022-11-08T00:59:22.046Z,101054.50
2022-11-08T01:00:24.584Z,101053.11
2022-11-08T01:01:22.704Z,101052.18
2022-11-08T01:02:23.607Z,101051.48
2022-11-08T01:03:23.831Z,101050.17
2022-11-08T01:03:32.501Z,101050.17
2022-11-08T01:04:33.506Z,101049.67
2022-11-08T01:05:32.872Z,101047.81
2022-11-08T01:06:33.838Z,101046.47
2022-11-08T01:07:33.383Z,101045.38
2022-11-08T01:08:34.756Z,101044.28
2022-11-08T01:09:34.227Z,101043.05
2022-11-08T01:10:34.678Z,101042.38
2022-11-08T01:11:35.993Z,101041.38
2022-11-08T01:12:36.323Z,101040.30
2022-11-08T01:13:36.606Z,101039.24
2022-11-08T01:14:36.955Z,101038.86
2022-11-08T01:15:36.375Z,101038.69
2022-11-08T01:16:36.509Z,101038.21
2022-11-08T01:17:36.772Z,101037.63
2022-11-08T01:18:37.004Z,101037.63
2022-11-08T01:19:38.541Z,101037.53
2022-11-08T01:20:38.935Z,101038.13
2022-11-08T01:21:39.405Z,101038.21
2022-11-08T01:22:39.773Z,101039.13
2022-11-08T01:23:40.196Z,101039.50
2022-11-08T01:24:40.408Z,101039.92
2022-11-08T01:24:49.052Z,101053.11
2022-11-08T01:25:50.643Z,101052.72
2022-11-08T01:26:49.967Z,101051.93
2022-11-08T01:27:51.410Z,101050.87
2022-11-08T01:28:52.028Z,101050.36
2022-11-08T01:29:52.429Z,101049.60
2022-11-08T01:30:51.461Z,101049.35
2022-11-08T01:31:51.932Z,101049.44
2022-11-08T01:32:52.743Z,101049.30
2022-11-08T01:33:54.141Z,101049.67
2022-11-08T01:34:53.573Z,101049.50
2022-11-08T01:35:55.128Z,101049.19
2022-11-08T01:36:56.323Z,101049.27
2022-11-08T01:37:55.632Z,101049.53
2022-11-08T01:38:56.129Z,101049.72
2022-11-08T01:39:55.688Z,101049.98
2022-11-08T01:40:57.058Z,101049.81
2022-11-08T01:41:57.486Z,101050.51
2022-11-08T01:42:58.239Z,101051.09
2022-11-08T01:43:58.884Z,101050.96
2022-11-08T01:44:07.525Z,101066.65
2022-11-08T01:45:08.696Z,101066.09
2022-11-08T01:46:09.085Z,101065.41
2022-11-08T01:47:09.373Z,101064.66
2022-11-08T01:48:08.597Z,101063.31
2022-11-08T01:49:09.774Z,101061.91
2022-11-08T01:50:09.956Z,101060.52
2022-11-08T01:51:10.313Z,101059.45
2022-11-08T01:52:09.587Z,101058.38
2022-11-08T03:43:13.091Z,101057.41
2022-11-08T03:44:13.939Z,101049.14
2022-11-08T03:45:15.126Z,101042.14
2022-11-08T03:46:14.737Z,101034.95
2022-11-08T03:47:16.044Z,101027.61
2022-11-08T03:48:17.230Z,101021.00
2022-11-08T03:49:16.116Z,101014.36
2022-11-08T03:50:17.835Z,101007.75
2022-11-08T03:51:18.322Z,101000.95
2022-11-08T03:52:19.169Z,100994.81
2022-11-08T03:53:19.869Z,100988.98
2022-11-08T03:54:20.799Z,100983.19
2022-11-08T03:54:29.535Z,100906.45
2022-11-08T03:55:31.217Z,100906.11
2022-11-08T03:56:31.885Z,100905.44
2022-11-08T03:57:59.768Z,100896.09
2022-11-08T03:59:00.522Z,100896.00
2022-11-08T04:00:00.414Z,100896.08
2022-11-08T04:01:01.863Z,100894.60
2022-11-08T04:02:01.108Z,100893.92
2022-11-08T04:03:01.895Z,100892.67
2022-11-08T04:04:03.876Z,100892.02
2022-11-08T04:05:04.753Z,100890.71
2022-11-08T04:06:04.858Z,100889.53
2022-11-08T04:07:05.606Z,100888.39
2022-11-08T04:08:06.218Z,100887.13
2022-11-08T04:09:06.961Z,100885.95
2022-11-08T04:10:07.388Z,100885.47
2022-11-08T04:11:08.036Z,100884.58
2022-11-08T04:12:08.878Z,100884.02
2022-11-08T04:13:09.435Z,100883.02
2022-11-08T04:14:10.092Z,100882.37
2022-11-08T04:15:09.427Z,100881.44
2022-11-08T04:16:13.916Z,100880.21
2022-11-08T04:17:10.875Z,100878.73
2022-11-08T04:18:11.905Z,100877.30
2022-11-08T04:19:11.797Z,100876.71
2022-11-08T04:20:12.941Z,100875.73
2022-11-08T04:20:21.616Z,100879.18
2022-11-08T04:21:23.251Z,100878.59
2022-11-08T04:22:23.225Z,100877.84
2022-11-08T04:23:23.638Z,100875.99
2022-11-08T04:24:24.488Z,100875.08
2022-11-08T04:25:25.224Z,100874.13
2022-11-08T04:26:25.711Z,100873.11
2022-11-08T04:27:26.441Z,100872.45
2022-11-08T04:28:27.062Z,100871.52
2022-11-08T04:29:27.477Z,100870.23
2022-11-08T04:30:26.628Z,100869.91
2022-11-08T04:31:28.490Z,100869.38
2022-11-08T04:32:28.861Z,100869.29
2022-11-08T04:33:29.756Z,100869.30
2022-11-08T04:34:29.557Z,100868.76
2022-11-08T04:35:31.541Z,100868.23
2022-11-08T04:36:31.762Z,100867.56
2022-11-08T04:37:32.022Z,100867.28
2022-11-08T04:38:32.391Z,100866.02
2022-11-08T04:38:41.399Z,100857.09
2022-11-08T04:39:42.318Z,100857.00
2022-11-08T04:40:42.663Z,100856.59
2022-11-08T04:41:44.602Z,100855.91
2022-11-08T04:43:18.818Z,100848.92
2022-11-08T04:44:19.560Z,100849.00
2022-11-08T04:45:20.310Z,100848.28
2022-11-08T04:46:20.760Z,100847.52
2022-11-08T04:47:22.011Z,100846.34
2022-11-08T04:48:22.826Z,100845.79
2022-11-08T04:49:23.030Z,100845.03
2022-11-08T04:50:24.026Z,100843.97
2022-11-08T04:51:24.974Z,100842.91
2022-11-08T04:52:25.912Z,100842.31
2022-11-08T04:53:25.777Z,100841.34
2022-11-08T04:54:27.726Z,100840.11
2022-11-08T04:55:27.803Z,100839.02
2022-11-08T04:56:28.748Z,100837.95
2022-11-08T04:57:28.625Z,100836.97
2022-11-08T04:58:30.520Z,100835.82
2022-11-08T04:59:31.482Z,100834.67
2022-11-08T05:00:32.063Z,100834.20
2022-11-08T05:01:31.802Z,100833.47
2022-11-08T05:02:32.110Z,100832.33
2022-11-08T05:03:32.844Z,100831.77
2022-11-08T05:03:41.478Z,100822.89
2022-11-08T05:04:42.969Z,100823.05
2022-11-08T05:05:43.839Z,100822.47
2022-11-08T05:06:43.896Z,100821.88
2022-11-08T05:07:44.045Z,100821.55
2022-11-08T05:08:44.769Z,100821.02
2022-11-08T05:09:45.227Z,100820.40
2022-11-08T05:10:45.753Z,100819.78
2022-11-08T05:11:46.572Z,100818.64
2022-11-08T05:12:47.420Z,100817.92
2022-11-08T05:13:48.000Z,100817.41
2022-11-08T05:14:48.564Z,100816.70
2022-11-08T05:15:49.350Z,100815.88
2022-11-08T05:16:48.392Z,100815.50
2022-11-08T05:17:49.910Z,100815.50
2022-11-08T05:18:50.759Z,100815.70
2022-11-08T05:19:51.318Z,100815.47
2022-11-08T05:20:51.482Z,100815.72
2022-11-08T05:21:52.060Z,100816.39
2022-11-08T05:22:01.187Z,100830.52
2022-11-08T05:23:01.219Z,100830.09
2022-11-08T05:24:02.415Z,100829.42
2022-11-08T05:25:02.333Z,100828.67
2022-11-08T05:26:02.577Z,100827.58
2022-11-08T05:27:03.955Z,100826.54
2022-11-08T05:28:03.970Z,100825.61
2022-11-08T05:29:03.205Z,100825.33
2022-11-08T05:30:04.597Z,100825.33
2022-11-08T05:31:04.339Z,100825.55
2022-11-08T05:32:05.286Z,100826.20
2022-11-08T05:33:06.738Z,100826.42
2022-11-08T05:34:07.001Z,100827.66
2022-11-08T05:35:07.940Z,100828.46
2022-11-08T05:36:08.846Z,100828.82
2022-11-08T05:37:09.018Z,100829.47
2022-11-08T05:38:09.520Z,100830.28
2022-11-08T05:39:09.883Z,100831.25
2022-11-08T05:40:10.019Z,100831.05
2022-11-08T05:41:10.194Z,100831.81
2022-11-08T05:42:10.908Z,100832.54
2022-11-08T05:43:10.031Z,100832.93
2022-11-08T05:44:10.668Z,100833.15
2022-11-08T05:44:19.827Z,100857.79
2022-11-08T05:45:21.746Z,100857.63
2022-11-08T05:46:22.648Z,100855.27
2022-11-08T05:47:22.650Z,100853.34
2022-11-08T05:48:24.361Z,100851.41
2022-11-08T05:49:24.554Z,100848.88
2022-11-08T05:50:25.186Z,100846.50
2022-11-08T05:51:25.199Z,100843.81
2022-11-08T05:52:25.418Z,100841.38
2022-11-08T05:53:24.477Z,100838.61
2022-11-08T05:54:26.001Z,100835.50
2022-11-08T05:55:26.558Z,100832.70
2022-11-08T05:56:27.073Z,100829.50
2022-11-08T05:57:27.905Z,100826.77
2022-11-08T05:58:28.697Z,100823.99
2022-11-08T05:59:29.511Z,100820.72
2022-11-08T06:00:30.195Z,100818.02
2022-11-08T06:01:30.432Z,100815.76
2022-11-08T06:02:30.500Z,100813.20
2022-11-08T06:03:31.175Z,100810.44
2022-11-08T06:04:30.882Z,100807.23
2022-11-08T06:04:39.988Z,100782.98
2022-11-08T06:05:41.948Z,100782.73
2022-11-08T06:06:42.136Z,100781.30
2022-11-08T06:07:42.361Z,100779.48
2022-11-08T06:08:47.459Z,100778.48
2022-11-08T06:09:41.679Z,100776.80
2022-11-08T06:10:42.862Z,100775.54
2022-11-08T06:11:43.881Z,100774.73
2022-11-08T06:12:42.875Z,100772.97
2022-11-08T06:13:44.526Z,100771.31
2022-11-08T06:14:45.173Z,100769.89
2022-11-08T06:15:45.449Z,100769.13
2022-11-08T06:16:44.913Z,100768.58
2022-11-08T06:17:45.062Z,100767.91
2022-11-08T06:18:46.633Z,100767.45
2022-11-08T06:19:47.107Z,100766.28
2022-11-08T06:20:47.830Z,100766.02
2022-11-08T06:21:48.150Z,100764.84
2022-11-08T06:22:47.618Z,100764.59
2022-11-08T06:23:49.429Z,100764.17
2022-11-08T06:23:58.504Z,100770.80
2022-11-08T06:24:58.530Z,100770.58
2022-11-08T06:25:59.655Z,100769.98
2022-11-08T06:27:00.314Z,100768.97
2022-11-08T06:27:59.694Z,100767.55
2022-11-08T06:29:01.545Z,100766.20
2022-11-08T06:30:01.991Z,100765.58
2022-11-08T06:31:02.515Z,100764.66
2022-11-08T06:32:02.068Z,100763.48
2022-11-08T06:33:02.689Z,100763.23
2022-11-08T06:34:04.630Z,100762.64
2022-11-08T06:35:04.718Z,100761.94
2022-11-08T06:36:04.841Z,100760.93
2022-11-08T06:37:05.769Z,100761.06
2022-11-08T06:38:09.307Z,100760.61
2022-11-08T06:39:06.357Z,100761.34
2022-11-08T06:40:08.110Z,100761.64
2022-11-08T06:41:07.849Z,100761.89
2022-11-08T06:42:08.603Z,100763.38
2022-11-08T06:43:11.051Z,100764.09
2022-11-08T06:44:09.905Z,100765.30
2022-11-08T06:45:11.179Z,100765.94
2022-11-08T06:45:21.826Z,100802.69
2022-11-08T06:46:23.701Z,100802.13
2022-11-08T06:47:23.493Z,100800.66
2022-11-08T06:48:24.299Z,100799.16
2022-11-08T06:49:25.976Z,100797.89
2022-11-08T06:50:25.271Z,100796.30
2022-11-08T06:51:25.890Z,100795.42
2022-11-08T06:52:27.524Z,100794.47
2022-11-08T06:53:27.213Z,100793.63
2022-11-08T06:54:28.937Z,100792.92
2022-11-08T06:55:29.408Z,100792.58
2022-11-08T06:56:30.163Z,100792.72
2022-11-08T06:58:05.902Z,100792.04
2022-11-08T06:59:05.638Z,100793.05
2022-11-08T07:00:07.473Z,100792.80
2022-11-08T07:01:06.762Z,100792.71
2022-11-08T07:02:34.892Z,100809.50
2022-11-08T07:03:35.718Z,100810.09
2022-11-08T07:04:36.488Z,100809.25
2022-11-08T07:05:38.256Z,100808.91
2022-11-08T07:06:39.014Z,100808.91
2022-11-08T07:07:39.210Z,100808.23
2022-11-08T07:08:39.307Z,100807.73
2022-11-08T07:09:39.952Z,100807.82
2022-11-08T07:10:40.698Z,100808.07
2022-11-08T07:11:41.505Z,100808.07
2022-11-08T07:12:41.127Z,100808.30
2022-11-08T07:13:41.812Z,100808.45
2022-11-08T07:14:43.055Z,100808.71
2022-11-08T07:15:43.959Z,100809.02
2022-11-08T07:16:44.657Z,100810.08
2022-11-08T07:17:45.168Z,100810.41
2022-11-08T07:18:44.895Z,100810.88
2022-11-08T07:19:45.306Z,100811.27
2022-11-08T07:20:47.276Z,100811.86
2022-11-08T07:21:47.255Z,100812.75
2022-11-08T07:22:48.171Z,100814.06
2022-11-08T07:23:48.805Z,100814.78
2022-11-08T07:23:57.472Z,100838.24
2022-11-08T07:24:57.801Z,100837.83
2022-11-08T07:25:59.431Z,100836.73
2022-11-08T07:27:00.517Z,100835.72
2022-11-08T07:27:59.525Z,100834.20
2022-11-08T07:28:59.289Z,100833.28
2022-11-08T07:30:00.629Z,100833.20
2022-11-08T07:31:00.093Z,100832.23
2022-11-08T07:32:00.544Z,100830.80
2022-11-08T07:33:00.626Z,100829.77
2022-11-08T07:34:00.945Z,100828.84
2022-11-08T07:35:02.061Z,100827.63
2022-11-08T07:36:01.745Z,100826.67
2022-11-08T07:37:03.595Z,100825.80
2022-11-08T07:38:04.281Z,100824.83
2022-11-08T07:39:06.768Z,100823.95
2022-11-08T07:40:04.136Z,100823.25
2022-11-08T07:41:05.000Z,100822.29
2022-11-08T07:42:06.446Z,100821.75
2022-11-08T07:43:12.327Z,100821.89
2022-11-08T07:44:06.789Z,100821.63
2022-11-08T07:45:07.381Z,100821.43
2022-11-08T07:46:09.100Z,100821.23
2022-11-08T07:47:08.933Z,100821.56
2022-11-08T07:47:17.576Z,100837.33
2022-11-08T07:48:19.281Z,100837.08
2022-11-08T07:49:18.422Z,100835.82
2022-11-08T07:50:19.275Z,100834.25
2022-11-08T07:51:20.875Z,100833.08
2022-11-08T07:52:20.518Z,100832.44
2022-11-08T07:53:22.485Z,100831.93
2022-11-08T07:54:22.750Z,100830.95
2022-11-08T07:55:23.316Z,100830.53
2022-11-08T07:56:23.617Z,100830.45
2022-11-08T07:57:23.632Z,100830.31
2022-11-08T07:58:23.805Z,100830.66
2022-11-08T07:59:24.075Z,100829.89
2022-11-08T08:00:24.826Z,100829.56
2022-11-08T08:01:25.199Z,100828.77
2022-11-08T08:02:24.259Z,100828.06
2022-11-08T08:03:25.142Z,100827.64
2022-11-08T08:04:25.445Z,100826.88
2022-11-08T08:05:27.297Z,100825.67
2022-11-08T08:06:28.117Z,100825.72
2022-11-08T08:07:28.928Z,100825.43
2022-11-08T08:07:37.588Z,100829.23
2022-11-08T08:08:38.594Z,100829.23
2022-11-08T08:09:39.564Z,100828.05
2022-11-08T08:10:40.260Z,100827.04
2022-11-08T08:11:40.263Z,100825.99
2022-11-08T08:12:42.223Z,100824.05
2022-11-08T08:13:41.595Z,100822.42
2022-11-08T08:14:42.961Z,100821.04
2022-11-08T08:15:42.443Z,100819.99
2022-11-08T08:16:42.566Z,100819.16
2022-11-08T08:17:43.641Z,100817.11
2022-11-08T08:18:42.966Z,100815.86
2022-11-08T08:19:43.073Z,100813.85
2022-11-08T08:20:44.867Z,100811.92
2022-11-08T08:21:44.509Z,100810.00
2022-11-08T08:22:44.662Z,100807.78
2022-11-08T08:23:46.131Z,100806.22
2022-11-08T08:24:46.265Z,100803.63
2022-11-08T08:25:46.223Z,100801.28
2022-11-08T08:26:47.846Z,100798.75
2022-11-08T08:27:48.693Z,100796.41
2022-11-08T08:28:48.653Z,100794.34
2022-11-08T08:28:58.715Z,100763.89
2022-11-08T08:30:00.333Z,100763.80
2022-11-08T08:31:01.112Z,100763.34
2022-11-08T08:32:00.299Z,100762.21
2022-11-08T08:33:26.319Z,100761.08
2022-11-08T08:34:00.647Z,100759.56
2022-11-08T08:35:00.656Z,100758.23
2022-11-08T08:36:01.522Z,100756.97
2022-11-08T08:37:01.819Z,100755.29
2022-11-08T08:38:03.056Z,100753.91
2022-11-08T08:39:03.071Z,100752.53
2022-11-08T08:40:03.483Z,100750.68
2022-11-08T08:41:04.085Z,100748.70
2022-11-08T08:42:04.723Z,100747.41
2022-11-08T08:43:03.811Z,100745.86
2022-11-08T08:44:04.652Z,100743.89
2022-11-08T08:45:08.481Z,100741.91
2022-11-08T08:46:04.898Z,100740.06
2022-11-08T08:47:06.652Z,100738.04
2022-11-08T08:48:07.340Z,100735.73
2022-11-08T08:49:08.308Z,100734.01
2022-11-08T08:50:08.029Z,100732.12
2022-11-08T08:51:09.850Z,100730.48
2022-11-08T08:51:20.820Z,100716.64
2022-11-08T08:52:22.761Z,100716.64
2022-11-08T08:53:23.729Z,100715.88
2022-11-08T08:54:29.204Z,100715.24
2022-11-08T08:55:23.239Z,100714.14
2022-11-08T08:56:24.308Z,100713.41
2022-11-08T08:57:24.953Z,100713.09
2022-11-08T08:58:25.817Z,100713.04
2022-11-08T09:01:42.021Z,100710.50
2022-11-08T09:02:27.480Z,100709.53
2022-11-08T09:03:29.388Z,100708.52
2022-11-08T09:04:30.145Z,100707.97
2022-11-08T09:05:29.541Z,100707.37
2022-11-08T09:06:31.246Z,100706.81
2022-11-08T09:07:30.664Z,100705.79
2022-11-08T09:08:31.775Z,100705.06
2022-11-08T09:09:31.197Z,100703.80
2022-11-08T09:10:33.090Z,100703.42
2022-11-08T09:11:33.888Z,100702.82
2022-11-08T09:11:42.521Z,100695.70
2022-11-08T09:12:44.272Z,100695.53
2022-11-08T09:13:44.554Z,100694.70
2022-11-08T09:14:45.483Z,100694.52
2022-11-08T09:15:46.053Z,100694.02
2022-11-08T09:16:45.930Z,100693.45
2022-11-08T09:17:48.738Z,100693.04
2022-11-08T09:18:48.292Z,100692.61
2022-11-08T09:19:50.848Z,100692.27
2022-11-08T09:20:48.711Z,100692.22
2022-11-08T09:21:48.970Z,100691.37
2022-11-08T09:22:49.617Z,100690.81
2022-11-08T09:23:51.518Z,100690.64
2022-11-08T09:24:52.370Z,100690.68
2022-11-08T09:25:52.127Z,100690.55
2022-11-08T09:26:53.033Z,100690.45
2022-11-08T09:27:54.747Z,100690.42
2022-11-08T09:28:55.727Z,100690.45
2022-11-08T09:29:54.974Z,100690.33
2022-11-08T09:30:55.706Z,100690.15
2022-11-08T09:31:56.222Z,100689.89
2022-11-08T09:33:01.203Z,100689.98
2022-11-08T09:33:56.650Z,100690.23
2022-11-08T09:34:57.425Z,100690.27
2022-11-08T09:35:57.693Z,100690.39
2022-11-08T09:36:59.310Z,100690.56
2022-11-08T09:37:07.899Z,100694.27
2022-11-08T09:38:09.622Z,100693.34
2022-11-08T09:39:10.552Z,100692.66
2022-11-08T09:40:10.607Z,100691.70
2022-11-08T09:41:10.390Z,100691.59
2022-11-08T09:42:10.954Z,100691.21
2022-11-08T09:43:12.553Z,100691.05
2022-11-08T09:44:13.075Z,100690.91
2022-11-08T09:45:13.967Z,100690.64
2022-11-08T09:46:14.420Z,100690.25
2022-11-08T09:47:16.246Z,100690.25
2022-11-08T09:48:14.298Z,100689.27
2022-11-08T09:49:16.188Z,100689.31
2022-11-08T09:50:17.008Z,100689.59
2022-11-08T09:51:16.498Z,100689.45
2022-11-08T09:52:17.519Z,100689.45
2022-11-08T09:53:18.156Z,100689.16
2022-11-08T09:53:26.783Z,100700.81
2022-11-08T09:54:28.260Z,100700.26
2022-11-08T09:55:30.987Z,100699.80
2022-11-08T09:56:28.895Z,100698.82
2022-11-08T09:57:29.230Z,100698.27
2022-11-08T09:58:30.807Z,100698.27
2022-11-08T09:59:31.690Z,100698.59
2022-11-08T10:00:30.981Z,100699.06
2022-11-08T10:01:33.013Z,100699.64
2022-11-08T10:02:32.704Z,100700.06
2022-11-08T10:03:34.601Z,100700.70
2022-11-08T10:04:33.830Z,100701.42
2022-11-08T10:05:35.564Z,100701.41
2022-11-08T10:06:37.014Z,100701.95
2022-11-08T10:07:35.000Z,100702.33
2022-11-08T10:08:36.782Z,100702.70
2022-11-08T10:09:37.108Z,100702.41
2022-11-08T10:10:37.674Z,100702.02
2022-11-08T10:11:39.373Z,100701.63
2022-11-08T10:13:12.321Z,100699.95
2022-11-08T10:14:12.436Z,100699.61
2022-11-08T10:15:13.995Z,100699.27
2022-11-08T10:16:14.680Z,100699.49
2022-11-08T10:17:14.985Z,100699.49
2022-11-08T10:18:15.704Z,100700.80
2022-11-08T10:19:16.106Z,100700.98
2022-11-08T10:20:15.679Z,100700.89
2022-11-08T10:21:17.602Z,100702.03
2022-11-08T10:22:17.190Z,100702.54
2022-11-08T10:23:19.182Z,100703.77
2022-11-08T10:24:18.307Z,100705.13
2022-11-08T10:25:18.800Z,100706.66
2022-11-08T10:26:24.110Z,100707.95
2022-11-08T10:27:20.153Z,100709.06
2022-11-08T10:28:21.447Z,100710.41
2022-11-08T10:29:22.316Z,100711.69
2022-11-08T10:30:21.820Z,100712.80
2022-11-08T10:31:22.612Z,100713.85
2022-11-08T10:32:24.844Z,100714.91
2022-11-08T10:33:23.525Z,100715.68
2022-11-08T10:34:24.950Z,100716.32
2022-11-08T10:35:25.647Z,100717.05
2022-11-08T10:35:34.240Z,100724.05
2022-11-08T10:36:36.003Z,100722.98
2022-11-08T10:37:35.492Z,100723.28
2022-11-08T10:38:36.344Z,100722.68
2022-11-08T10:39:38.337Z,100722.55
2022-11-08T10:40:38.703Z,100722.38
2022-11-08T10:41:39.285Z,100722.80
2022-11-08T10:42:39.549Z,100722.45
2022-11-08T10:43:40.389Z,100722.58
2022-11-08T10:44:41.382Z,100722.16
2022-11-08T10:45:42.000Z,100722.36
2022-11-08T10:46:42.826Z,100722.60
2022-11-08T10:47:42.488Z,100722.98
2022-11-08T10:48:43.599Z,100722.59
2022-11-08T10:49:43.611Z,100722.06
2022-11-08T10:50:43.433Z,100721.22
2022-11-08T10:51:45.344Z,100720.99
2022-11-08T10:52:45.063Z,100720.14
2022-11-08T10:53:46.280Z,100719.50
2022-11-08T10:54:46.871Z,100719.23
2022-11-08T10:54:55.565Z,100707.28
2022-11-08T10:55:55.550Z,100706.52
2022-11-08T10:56:56.823Z,100706.60
2022-11-08T10:57:57.515Z,100706.17
2022-11-08T10:58:56.541Z,100706.09
2022-11-08T10:59:58.477Z,100705.51
2022-11-08T11:00:58.866Z,100705.45
2022-11-08T11:01:59.172Z,100705.34
2022-11-08T11:02:59.397Z,100704.66
2022-11-08T11:03:59.551Z,100703.84
2022-11-08T11:05:00.410Z,100702.44
2022-11-08T11:06:00.737Z,100700.94
2022-11-08T11:07:00.976Z,100699.66
2022-11-08T11:08:01.959Z,100699.14
2022-11-08T11:09:01.054Z,100698.11
2022-11-08T11:10:02.721Z,100697.42
2022-11-08T11:11:02.800Z,100696.92
2022-11-08T11:12:02.898Z,100695.90
2022-11-08T11:13:02.181Z,100695.38
2022-11-08T11:14:03.314Z,100694.60
2022-11-08T11:15:03.424Z,100693.52
2022-11-08T11:15:12.611Z,100673.95
2022-11-08T11:16:14.472Z,100673.36
2022-11-08T11:17:15.348Z,100673.61
2022-11-08T11:18:15.410Z,100673.56
2022-11-08T11:19:15.168Z,100673.92
2022-11-08T11:20:17.095Z,100674.50
2022-11-08T11:21:17.513Z,100674.27
2022-11-08T11:22:18.274Z,100674.37
2022-11-08T11:23:18.011Z,100673.95
2022-11-08T11:24:19.519Z,100673.84
2022-11-08T11:25:18.801Z,100673.12
2022-11-08T11:26:20.137Z,100672.62
2022-11-08T11:27:19.814Z,100672.48
2022-11-08T11:28:21.427Z,100671.89
2022-11-08T11:29:20.888Z,100671.92
2022-11-08T11:30:22.065Z,100670.72
2022-11-08T11:31:22.842Z,100670.07
2022-11-08T11:32:22.819Z,100669.48
2022-11-08T11:32:31.452Z,100664.70
2022-11-08T11:33:33.206Z,100663.95
2022-11-08T11:34:32.722Z,100664.44
2022-11-08T11:35:35.772Z,100664.78
2022-11-08T11:36:37.229Z,100665.63
2022-11-08T11:37:36.218Z,100666.90
2022-11-08T11:38:35.913Z,100668.21
2022-11-08T11:39:37.611Z,100670.28
2022-11-08T11:40:38.105Z,100672.26
2022-11-08T11:41:38.370Z,100673.98
2022-11-08T11:42:46.654Z,100675.05
2022-11-08T11:43:38.423Z,100676.90
2022-11-08T11:44:38.873Z,100679.11
2022-11-08T11:45:40.802Z,100681.25
2022-11-08T11:46:41.743Z,100683.29
2022-11-08T11:47:41.010Z,100685.41
2022-11-08T11:48:43.729Z,100687.99
2022-11-08T11:49:43.209Z,100690.92
2022-11-08T11:50:44.048Z,100693.34
2022-11-08T11:51:43.894Z,100695.72
2022-11-08T11:52:43.820Z,100698.37
2022-11-08T11:53:04.719Z,100729.37
2022-11-08T11:54:06.125Z,100729.37
2022-11-08T11:55:05.928Z,100729.62
2022-11-08T11:56:07.430Z,100730.20
2022-11-08T11:57:07.823Z,100730.76
2022-11-08T11:58:08.516Z,100731.67
2022-11-08T11:59:08.825Z,100733.31
2022-11-08T12:00:09.765Z,100733.73
2022-11-08T12:01:14.057Z,100734.64
2022-11-08T12:02:09.028Z,100736.30
2022-11-08T12:03:09.527Z,100737.86
2022-11-08T12:04:09.627Z,100739.11
2022-11-08T12:05:46.212Z,100775.77
2022-11-08T12:06:43.499Z,100775.77
2022-11-08T12:07:43.969Z,100775.94
2022-11-08T12:08:44.573Z,100776.23
2022-11-08T12:09:44.619Z,100776.55
2022-11-08T12:10:45.895Z,100777.09
2022-11-08T12:11:46.573Z,100777.52
2022-11-08T12:12:47.139Z,100778.31
2022-11-08T12:13:53.135Z,100778.23
2022-11-08T12:14:47.515Z,100778.69
2022-11-08T12:15:48.986Z,100778.77
2022-11-08T12:16:48.907Z,100778.77
2022-11-08T12:17:50.245Z,100778.26
2022-11-08T12:18:51.902Z,100778.94
2022-11-08T12:19:50.823Z,100779.02
2022-11-08T12:20:51.295Z,100777.66
2022-11-08T12:21:51.448Z,100776.41
2022-11-08T12:22:52.044Z,100774.70
2022-11-08T12:23:53.545Z,100772.10
2022-11-08T12:24:53.491Z,100769.50
2022-11-08T12:25:54.904Z,100767.45
2022-11-08T12:26:54.699Z,100764.84
2022-11-08T12:27:54.931Z,100761.85
2022-11-08T12:29:25.722Z,100739.36
2022-11-08T12:30:25.739Z,100739.02
2022-11-08T12:31:27.431Z,100738.89
2022-11-08T12:32:28.315Z,100738.63
2022-11-08T12:33:29.082Z,100738.53
2022-11-08T12:34:28.229Z,100738.66
2022-11-08T12:35:28.433Z,100740.17
2022-11-08T12:36:28.621Z,100740.98
2022-11-08T12:37:36.382Z,100741.81
2022-11-08T12:38:29.328Z,100742.19
2022-11-08T12:39:30.686Z,100742.29
2022-11-08T12:40:29.813Z,100741.59
2022-11-08T12:41:31.037Z,100741.78
2022-11-08T12:42:30.240Z,100742.13
2022-11-08T12:43:30.787Z,100741.90
2022-11-08T12:44:30.815Z,100742.13
2022-11-08T12:45:31.358Z,100742.66
2022-11-08T12:46:32.468Z,100743.73
2022-11-08T12:47:32.390Z,100743.58
2022-11-08T12:48:34.162Z,100742.88
2022-11-08T12:49:34.122Z,100741.53
2022-11-08T12:50:36.948Z,100740.38
2022-11-08T12:51:35.364Z,100739.34
2022-11-08T12:52:37.048Z,100737.53
2022-11-08T12:53:36.937Z,100736.38
2022-11-08T12:54:37.348Z,100734.75
2022-11-08T12:54:46.803Z,100711.45
2022-11-08T12:55:47.459Z,100710.05
2022-11-08T12:56:48.616Z,100710.00
2022-11-08T12:57:47.963Z,100709.66
2022-11-08T12:58:49.472Z,100710.60
2022-11-08T12:59:50.418Z,100712.13
2022-11-08T13:00:51.237Z,100713.79
2022-11-08T13:01:51.123Z,100715.66